createdAt,value
2023-03-17T00:00:51.661Z,101015.29
2023-03-17T00:03:26.747Z,101010.15
2023-03-17T00:06:01.011Z,101013.87
2023-03-17T00:08:34.506Z,101012.92
2023-03-17T00:11:05.965Z,101010.52
2023-03-17T00:13:39.134Z,101007.44
2023-03-17T00:16:17.772Z,101007.42
2023-03-17T00:18:50.013Z,101003.48
2023-03-17T00:21:30.090Z,101005.07
2023-03-17T00:24:07.023Z,101000.95
2023-03-17T00:26:39.205Z,100996.61
2023-03-17T00:29:11.796Z,100999.02
2023-03-17T00:31:46.062Z,101004.55
2023-03-17T00:34:18.876Z,101000.64
2023-03-17T00:36:53.128Z,101002.36
2023-03-17T00:39:27.536Z,101005.30
2023-03-17T00:42:00.146Z,100997.64
2023-03-17T00:44:32.848Z,100994.69
2023-03-17T00:47:02.660Z,100997.17
2023-03-17T00:49:31.757Z,100997.02
2023-03-17T00:52:02.733Z,100996.89
2023-03-17T00:54:33.427Z,100994.23
2023-03-17T00:57:03.073Z,100991.13
2023-03-17T00:59:41.443Z,100993.31
2023-03-17T01:02:15.319Z,100994.89
2023-03-17T01:04:52.872Z,100995.25
2023-03-17T01:07:33.147Z,100995.09
2023-03-17T01:10:05.757Z,100997.74
2023-03-17T01:13:06.367Z,100994.39
2023-03-17T01:15:39.322Z,100994.71
2023-03-17T01:18:13.490Z,100992.54
2023-03-17T01:20:43.850Z,100992.65
2023-03-17T01:23:14.672Z,100992.96
2023-03-17T01:25:45.845Z,100988.51
2023-03-17T01:28:18.398Z,100986.81
2023-03-17T01:30:49.707Z,100987.17
2023-03-17T01:33:23.069Z,100986.86
2023-03-17T01:35:53.563Z,100985.80
2023-03-17T01:38:23.234Z,100981.66
2023-03-17T01:40:54.374Z,100978.19
2023-03-17T01:43:31.169Z,100970.02
2023-03-17T01:46:39.781Z,100973.95
2023-03-17T01:49:09.994Z,100972.34
2023-03-17T01:51:40.910Z,100977.59
2023-03-17T01:54:17.683Z,100977.91
2023-03-17T01:56:51.353Z,100977.47
2023-03-17T01:59:28.192Z,100984.71
2023-03-17T02:02:06.737Z,100987.80
2023-03-17T02:04:39.837Z,100988.30
2023-03-17T02:07:10.627Z,100987.94
2023-03-17T02:09:45.039Z,100986.46
2023-03-17T02:12:16.629Z,100982.92
2023-03-17T02:14:49.475Z,100987.59
2023-03-17T02:17:20.251Z,100991.60
2023-03-17T02:19:54.855Z,100988.31
2023-03-17T02:22:25.506Z,100989.85
2023-03-17T02:25:00.940Z,100988.85
2023-03-17T02:27:39.175Z,100982.92
2023-03-17T02:30:12.907Z,100988.08
2023-03-17T02:32:46.955Z,100988.52
2023-03-17T02:35:16.264Z,100988.25
2023-03-17T02:37:49.357Z,100993.00
2023-03-17T02:40:19.933Z,100994.70
2023-03-17T02:42:50.181Z,101000.99
2023-03-17T02:45:21.012Z,101002.52
2023-03-17T02:47:53.051Z,101004.34
2023-03-17T02:50:25.390Z,101003.80
2023-03-17T02:52:58.316Z,100997.90
2023-03-17T02:55:30.780Z,100996.46
2023-03-17T02:58:03.539Z,100998.29
2023-03-17T03:00:35.324Z,101002.79
2023-03-17T03:03:05.376Z,100998.56
2023-03-17T03:05:39.293Z,100998.35
2023-03-17T03:08:11.717Z,100998.44
2023-03-17T03:10:42.263Z,100993.66
2023-03-17T03:13:15.188Z,100987.67
2023-03-17T03:15:45.395Z,100984.15
2023-03-17T03:18:17.227Z,100981.20
2023-03-17T03:20:47.932Z,100977.84
2023-03-17T03:23:18.588Z,100965.70
2023-03-17T03:25:49.218Z,100967.14
2023-03-17T03:28:19.593Z,100965.56
2023-03-17T03:30:48.877Z,100963.00
2023-03-17T03:33:20.483Z,100963.39
2023-03-17T03:35:51.732Z,100967.83
2023-03-17T03:38:21.642Z,100972.73
2023-03-17T03:40:52.887Z,100975.09
2023-03-17T03:43:24.041Z,100973.06
2023-03-17T03:45:55.045Z,100976.77
2023-03-17T03:48:26.175Z,100978.39
2023-03-17T03:51:01.733Z,100978.27
2023-03-17T03:53:36.128Z,100967.23
2023-03-17T03:56:05.717Z,100959.05
2023-03-17T03:58:36.087Z,100960.93
2023-03-17T04:01:07.808Z,100959.71
2023-03-17T04:03:38.976Z,100956.83
2023-03-17T04:06:09.111Z,100950.00
2023-03-17T04:08:42.314Z,100945.41
2023-03-17T04:11:11.726Z,100948.39
2023-03-17T04:13:44.672Z,100951.46
2023-03-17T04:16:17.888Z,100959.08
2023-03-17T04:18:48.395Z,100966.90
2023-03-17T04:21:19.476Z,100966.52
2023-03-17T04:23:50.673Z,100974.96
2023-03-17T04:26:23.736Z,100979.92
2023-03-17T04:28:53.425Z,100987.67
2023-03-17T04:31:27.299Z,100988.33
2023-03-17T04:33:58.441Z,100991.26
2023-03-17T04:36:31.036Z,100995.66
2023-03-17T04:39:04.331Z,100994.82
2023-03-17T04:41:34.983Z,100991.92
2023-03-17T04:44:06.457Z,100993.74
2023-03-17T04:46:38.853Z,100990.96
2023-03-17T04:49:11.057Z,100982.52
2023-03-17T04:51:42.765Z,100981.64
2023-03-17T04:54:14.400Z,100985.46
2023-03-17T04:56:47.084Z,100980.72
2023-03-17T04:59:17.271Z,100980.98
2023-03-17T05:01:50.320Z,100981.19
2023-03-17T05:04:31.089Z,100978.64
2023-03-17T05:07:04.250Z,100975.86
2023-03-17T05:09:33.922Z,100971.04
2023-03-17T05:12:04.715Z,100972.07
2023-03-17T05:14:35.856Z,100970.60
2023-03-17T05:17:06.711Z,100966.02
2023-03-17T05:19:40.586Z,100969.36
2023-03-17T05:22:11.469Z,100968.54
2023-03-17T05:24:42.259Z,100979.20
2023-03-17T05:27:12.672Z,100989.49
2023-03-17T05:29:44.413Z,100981.97
2023-03-17T05:32:14.030Z,100979.41
2023-03-17T05:34:45.945Z,100979.16
2023-03-17T05:37:18.230Z,100985.36
2023-03-17T05:39:48.470Z,100988.73
2023-03-17T05:42:23.351Z,100995.72
2023-03-17T05:44:55.842Z,101005.45
2023-03-17T05:47:28.321Z,101008.79
2023-03-17T05:50:01.556Z,101006.88
2023-03-17T05:52:30.671Z,101008.89
2023-03-17T05:55:00.676Z,101004.80
2023-03-17T05:57:31.325Z,100998.48
2023-03-17T06:00:01.931Z,100998.06
2023-03-17T06:02:36.739Z,100998.15
2023-03-17T06:05:09.264Z,100998.45
2023-03-17T06:07:51.952Z,100996.86
2023-03-17T06:10:25.907Z,100991.66
2023-03-17T06:12:55.547Z,100991.36
2023-03-17T06:15:25.397Z,100989.86
2023-03-17T06:17:57.361Z,100981.87
2023-03-17T06:20:27.074Z,100976.00
2023-03-17T06:23:04.385Z,100979.23
2023-03-17T06:25:37.992Z,100989.84
2023-03-17T06:28:08.094Z,100997.68
2023-03-17T06:30:40.752Z,100992.80
2023-03-17T06:33:11.374Z,100988.69
2023-03-17T06:35:40.991Z,100988.95
2023-03-17T06:38:12.315Z,100986.51
2023-03-17T06:40:44.116Z,100990.10
2023-03-17T06:43:14.180Z,100994.45
2023-03-17T06:45:45.010Z,100997.58
2023-03-17T06:48:15.255Z,100998.98
2023-03-17T06:50:51.642Z,101006.14
2023-03-17T06:53:22.278Z,101005.20
2023-03-17T06:55:51.826Z,101001.06
2023-03-17T06:58:22.976Z,101001.45
2023-03-17T07:00:55.334Z,101001.90
2023-03-17T07:03:28.092Z,101006.30
2023-03-17T07:06:00.266Z,101004.25
2023-03-17T07:08:31.536Z,101002.39
2023-03-17T07:11:04.955Z,101001.77
2023-03-17T07:13:37.600Z,101004.93
2023-03-17T07:16:09.019Z,101010.19
2023-03-17T07:18:37.969Z,101002.20
2023-03-17T07:21:07.502Z,101001.71
2023-03-17T07:23:37.988Z,100994.31
2023-03-17T07:26:07.094Z,100987.95
2023-03-17T07:28:37.198Z,100990.80
2023-03-17T07:31:10.979Z,100982.26
2023-03-17T07:33:43.265Z,100982.65
2023-03-17T07:36:16.541Z,100976.00
2023-03-17T07:38:47.621Z,100983.21
2023-03-17T07:41:17.221Z,100985.23
2023-03-17T07:43:49.143Z,100988.27
2023-03-17T07:46:20.011Z,100990.77
2023-03-17T07:48:51.496Z,100994.92
2023-03-17T07:51:23.833Z,100996.29
2023-03-17T07:54:03.915Z,101000.65
2023-03-17T07:56:36.448Z,101002.60
2023-03-17T07:59:12.425Z,101000.59
2023-03-17T08:01:45.320Z,100999.17
2023-03-17T08:04:16.342Z,101002.58
2023-03-17T08:06:47.176Z,100997.59
2023-03-17T08:09:17.401Z,100995.82
2023-03-17T08:11:49.461Z,100999.98
2023-03-17T08:14:22.395Z,101006.64
2023-03-17T08:16:51.734Z,101002.23
2023-03-17T08:19:22.701Z,101003.67
2023-03-17T08:21:54.786Z,101002.50
2023-03-17T08:24:27.579Z,101001.88
2023-03-17T08:26:59.806Z,101000.80
2023-03-17T08:29:32.007Z,101004.42
2023-03-17T08:32:06.016Z,100999.85
2023-03-17T08:34:37.638Z,100996.96
2023-03-17T08:37:11.329Z,100991.91
2023-03-17T08:39:41.417Z,100988.78
2023-03-17T08:42:12.382Z,100984.83
2023-03-17T08:44:44.697Z,100986.38
2023-03-17T08:47:13.938Z,100986.43
2023-03-17T08:49:44.185Z,100974.95
2023-03-17T08:52:15.536Z,100972.89
2023-03-17T08:54:47.596Z,100968.23
2023-03-17T08:57:18.540Z,100966.02
2023-03-17T08:59:49.025Z,100966.54
2023-03-17T09:02:20.804Z,100977.20
2023-03-17T09:04:51.848Z,100981.26
2023-03-17T09:07:23.011Z,100980.23
2023-03-17T09:09:53.321Z,100982.52
2023-03-17T09:12:53.003Z,100978.20
2023-03-17T09:15:25.802Z,100968.88
2023-03-17T09:17:57.945Z,100974.34
2023-03-17T09:20:27.731Z,100970.17
2023-03-17T09:22:58.493Z,100967.54
2023-03-17T09:25:29.261Z,100959.81
2023-03-17T09:27:59.560Z,100958.15
2023-03-17T09:30:32.452Z,100960.92
2023-03-17T09:33:04.487Z,100962.28
2023-03-17T09:35:37.528Z,100964.50
2023-03-17T09:38:11.951Z,100961.88
2023-03-17T09:41:35.877Z,100956.02
2023-03-17T09:44:13.866Z,100959.83
2023-03-17T09:47:11.228Z,100964.45
2023-03-17T09:49:52.793Z,100962.46
2023-03-17T09:52:29.633Z,100958.02
2023-03-17T09:55:01.970Z,100958.15
2023-03-17T09:57:40.955Z,100956.17
2023-03-17T10:00:23.580Z,100955.36
2023-03-17T10:02:56.027Z,100953.33
2023-03-17T10:05:29.725Z,100940.28
2023-03-17T10:08:31.532Z,100933.93
2023-03-17T10:14:34.117Z,100921.40
2023-03-17T10:20:30.089Z,100927.79
2023-03-17T10:23:08.222Z,100923.27
2023-03-17T10:25:38.840Z,100918.77
2023-03-17T10:28:20.907Z,100911.79
2023-03-17T10:30:52.000Z,100906.11
2023-03-17T10:33:24.504Z,100900.40
2023-03-17T10:35:55.017Z,100897.58
2023-03-17T10:38:28.063Z,100889.80
2023-03-17T10:41:02.598Z,100876.77
2023-03-17T10:43:41.721Z,100870.09
2023-03-17T10:46:31.842Z,100863.63
2023-03-17T10:49:17.165Z,100855.39
2023-03-17T10:51:49.570Z,100855.07
2023-03-17T10:54:21.504Z,100857.39
2023-03-17T10:57:02.485Z,100852.02
2023-03-17T10:59:44.776Z,100850.27
2023-03-17T11:02:37.725Z,100852.38
2023-03-17T11:05:26.069Z,100846.44
2023-03-17T11:08:08.913Z,100842.88
2023-03-17T11:10:40.798Z,100843.88
2023-03-17T11:13:36.647Z,100836.00
2023-03-17T11:16:25.124Z,100839.95
2023-03-17T11:19:00.879Z,100841.17
2023-03-17T11:21:35.203Z,100837.38
2023-03-17T11:24:41.193Z,100838.98
2023-03-17T11:27:19.654Z,100849.34
2023-03-17T11:30:20.412Z,100844.45
2023-03-17T11:33:04.961Z,100843.46
2023-03-17T11:35:44.569Z,100835.83
2023-03-17T11:38:17.206Z,100814.09
2023-03-17T11:40:55.220Z,100814.90
2023-03-17T11:44:29.736Z,100819.21
2023-03-17T11:47:12.684Z,100801.84
2023-03-17T11:49:51.462Z,100810.39
2023-03-17T11:53:21.372Z,100808.17
2023-03-17T11:56:14.514Z,100801.05
2023-03-17T11:58:49.785Z,100802.83
2023-03-17T12:01:28.985Z,100801.64
2023-03-17T12:04:17.096Z,100796.27
2023-03-17T12:07:24.796Z,100787.03
2023-03-17T12:10:29.804Z,100781.50
2023-03-17T12:13:07.606Z,100778.98
2023-03-17T12:15:45.964Z,100767.93
2023-03-17T12:18:28.878Z,100761.33
2023-03-17T12:21:02.367Z,100753.03
2023-03-17T12:23:38.737Z,100760.61
2023-03-17T12:26:16.372Z,100753.70
2023-03-17T12:29:53.164Z,100752.77
2023-03-17T12:32:46.713Z,100752.88
2023-03-17T12:35:26.380Z,100748.09
2023-03-17T12:37:59.141Z,100746.12
2023-03-17T12:40:43.369Z,100731.69
2023-03-17T12:43:48.787Z,100722.45
2023-03-17T12:46:49.187Z,100711.73
2023-03-17T12:49:40.549Z,100703.83
2023-03-17T12:52:26.549Z,100703.50
2023-03-17T12:55:01.755Z,100697.89
2023-03-17T12:57:49.741Z,100706.79
2023-03-17T13:00:31.098Z,100690.61
2023-03-17T13:03:25.777Z,100679.59
2023-03-17T13:05:59.158Z,100663.63
2023-03-17T13:08:37.842Z,100669.02
2023-03-17T13:11:27.211Z,100680.00
2023-03-17T13:14:09.194Z,100680.89
2023-03-17T13:16:46.193Z,100677.98
2023-03-17T13:19:25.921Z,100670.20
2023-03-17T13:22:03.955Z,100663.33
2023-03-17T13:24:49.002Z,100666.82
2023-03-17T13:27:33.402Z,100672.05
2023-03-17T13:30:26.804Z,100670.83
2023-03-17T13:32:59.903Z,100678.20
2023-03-17T13:35:59.209Z,100663.80
2023-03-17T13:38:34.678Z,100663.30
2023-03-17T13:41:32.586Z,100658.57
2023-03-17T13:44:33.234Z,100647.91
2023-03-17T13:47:34.151Z,100642.26
2023-03-17T13:50:18.294Z,100633.41
2023-03-17T13:52:48.905Z,100633.68
2023-03-17T13:55:19.888Z,100639.99
2023-03-17T13:58:11.566Z,100655.21
2023-03-17T14:00:54.080Z,100664.92
2023-03-17T14:03:43.169Z,100671.39
2023-03-17T14:06:15.258Z,100674.77
2023-03-17T14:08:47.298Z,100659.59
2023-03-17T14:11:38.401Z,100658.51
2023-03-17T14:14:32.670Z,100654.48
2023-03-17T14:17:24.934Z,100663.06
2023-03-17T14:20:20.219Z,100662.76
2023-03-17T14:23:00.297Z,100664.56
2023-03-17T14:25:35.805Z,100659.16
2023-03-17T14:28:11.372Z,100651.45
2023-03-17T14:30:55.912Z,100646.48
2023-03-17T14:33:38.610Z,100647.79
2023-03-17T14:36:14.173Z,100637.79
2023-03-17T14:38:49.633Z,100632.73
2023-03-17T14:41:25.014Z,100635.05
2023-03-17T14:43:58.836Z,100637.98
2023-03-17T14:46:41.550Z,100644.35
2023-03-17T14:49:23.087Z,100650.05
2023-03-17T14:51:57.683Z,100642.98
2023-03-17T14:54:34.015Z,100640.31
2023-03-17T14:57:08.170Z,100643.15
2023-03-17T14:59:42.955Z,100640.39
2023-03-17T15:02:39.287Z,100635.38
2023-03-17T15:05:38.605Z,100636.64
2023-03-17T15:08:36.244Z,100633.13
2023-03-17T15:11:09.289Z,100621.81
2023-03-17T15:13:39.661Z,100623.60
2023-03-17T15:16:32.153Z,100629.02
2023-03-17T15:19:20.192Z,100621.98
2023-03-17T15:21:52.169Z,100613.41
2023-03-17T15:24:41.065Z,100612.76
2023-03-17T15:27:19.294Z,100621.83
2023-03-17T15:29:50.103Z,100616.45
2023-03-17T15:32:23.930Z,100623.02
2023-03-17T15:34:57.597Z,100610.34
2023-03-17T15:37:32.404Z,100612.19
2023-03-17T15:40:05.989Z,100606.39
2023-03-17T15:42:37.345Z,100607.54
2023-03-17T15:45:08.675Z,100600.61
2023-03-17T15:47:40.460Z,100602.52
2023-03-17T15:50:21.578Z,100603.89
2023-03-17T15:52:56.402Z,100613.33
2023-03-17T15:55:31.947Z,100611.59
2023-03-17T15:58:03.490Z,100608.45
2023-03-17T16:00:36.827Z,100602.34
2023-03-17T16:03:21.049Z,100614.42
2023-03-17T16:05:51.894Z,100620.92
2023-03-17T16:08:25.363Z,100615.94
2023-03-17T16:10:56.180Z,100620.17
2023-03-17T16:13:31.143Z,100616.07
2023-03-17T16:16:05.863Z,100616.52
2023-03-17T16:18:39.486Z,100611.09
2023-03-17T16:21:10.419Z,100618.38
2023-03-17T16:23:41.985Z,100612.34
2023-03-17T16:26:16.036Z,100616.41
2023-03-17T16:28:48.275Z,100615.95
2023-03-17T16:31:21.420Z,100614.79
2023-03-17T16:33:51.551Z,100617.11
2023-03-17T16:36:25.962Z,100618.02
2023-03-17T16:38:56.230Z,100619.06
2023-03-17T16:41:28.020Z,100620.77
2023-03-17T16:44:02.696Z,100621.41
2023-03-17T16:46:35.488Z,100620.31
2023-03-17T16:49:07.011Z,100622.77
2023-03-17T16:51:40.329Z,100620.20
2023-03-17T16:54:11.993Z,100613.78
2023-03-17T16:56:44.631Z,100616.91
2023-03-17T16:59:21.632Z,100622.04
2023-03-17T17:01:52.948Z,100618.11
2023-03-17T17:04:24.996Z,100610.50
2023-03-17T17:06:58.833Z,100605.30
2023-03-17T17:09:29.843Z,100610.52
2023-03-17T17:12:01.377Z,100615.43
2023-03-17T17:14:36.153Z,100614.02
2023-03-17T17:17:05.732Z,100608.46
2023-03-17T17:19:36.272Z,100609.42
2023-03-17T17:22:08.313Z,100610.59
2023-03-17T17:24:38.231Z,100609.45
2023-03-17T17:27:12.434Z,100608.59
2023-03-17T17:29:43.034Z,100601.45
2023-03-17T17:32:13.915Z,100597.44
2023-03-17T17:34:45.132Z,100601.57
2023-03-17T17:37:18.336Z,100597.75
2023-03-17T17:39:50.778Z,100603.70
2023-03-17T17:42:22.830Z,100605.61
2023-03-17T17:44:54.464Z,100615.52
2023-03-17T17:47:27.722Z,100610.08
2023-03-17T17:50:00.635Z,100617.45
2023-03-17T17:52:31.603Z,100619.67
2023-03-17T17:55:05.334Z,100616.36
2023-03-17T17:57:37.502Z,100611.45
2023-03-17T18:00:11.973Z,100607.70
2023-03-17T18:02:42.042Z,100597.04
2023-03-17T18:05:14.987Z,100592.09
2023-03-17T18:07:48.139Z,100599.08
2023-03-17T18:10:24.561Z,100601.62
2023-03-17T18:13:00.529Z,100593.45
2023-03-17T18:15:30.801Z,100591.42
2023-03-17T18:18:02.874Z,100595.15
2023-03-17T18:20:36.432Z,100585.73
2023-03-17T18:23:15.752Z,100590.92
2023-03-17T18:25:47.119Z,100587.38
2023-03-17T18:28:18.457Z,100594.73
2023-03-17T18:30:49.241Z,100600.77
2023-03-17T18:33:21.490Z,100601.07
2023-03-17T18:35:55.566Z,100598.45
2023-03-17T18:38:26.071Z,100604.36
2023-03-17T18:40:59.237Z,100611.45
2023-03-17T18:43:30.578Z,100603.43
2023-03-17T18:46:02.391Z,100605.66
2023-03-17T18:48:37.350Z,100601.63
2023-03-17T18:51:09.285Z,100598.89
2023-03-17T18:53:40.667Z,100596.63
2023-03-17T18:56:11.657Z,100595.94
2023-03-17T18:58:46.089Z,100592.45
2023-03-17T19:01:20.181Z,100590.98
2023-03-17T19:03:54.732Z,100598.81
2023-03-17T19:06:28.029Z,100601.36
2023-03-17T19:09:00.769Z,100596.72
2023-03-17T19:11:33.423Z,100600.49
2023-03-17T19:14:05.709Z,100599.98
2023-03-17T19:16:43.609Z,100597.81
2023-03-17T19:19:19.448Z,100603.69
2023-03-17T19:21:53.787Z,100598.71
2023-03-17T19:24:25.486Z,100599.26
2023-03-17T19:26:57.168Z,100599.10
2023-03-17T19:29:35.322Z,100599.89
2023-03-17T19:32:08.421Z,100596.24
2023-03-17T19:34:43.016Z,100593.11
2023-03-17T19:37:16.595Z,100589.23
2023-03-17T19:39:48.232Z,100599.07
2023-03-17T19:42:19.616Z,100597.83
2023-03-17T19:44:52.668Z,100597.98
2023-03-17T19:47:31.319Z,100597.14
2023-03-17T19:50:06.857Z,100599.57
2023-03-17T19:52:38.606Z,100603.05
2023-03-17T19:55:13.769Z,100602.73
2023-03-17T19:57:46.191Z,100594.41
2023-03-17T20:00:17.787Z,100592.14
2023-03-17T20:02:50.149Z,100592.05
2023-03-17T20:05:21.721Z,100585.62
2023-03-17T20:07:53.282Z,100590.20
2023-03-17T20:10:23.696Z,100594.33
2023-03-17T20:12:59.447Z,100600.17
2023-03-17T20:15:32.908Z,100598.19
2023-03-17T20:18:09.093Z,100600.33
2023-03-17T20:20:41.711Z,100598.16
2023-03-17T20:23:13.876Z,100595.20
2023-03-17T20:25:45.394Z,100585.73
2023-03-17T20:28:17.959Z,100585.21
2023-03-17T20:30:51.243Z,100583.43
2023-03-17T20:33:22.049Z,100584.55
2023-03-17T20:35:54.078Z,100584.88
2023-03-17T20:38:26.500Z,100587.05
2023-03-17T20:41:13.426Z,100590.38
2023-03-17T20:43:44.769Z,100590.52
2023-03-17T20:46:21.750Z,100586.62
2023-03-17T20:48:59.839Z,100590.45
2023-03-17T20:51:33.431Z,100592.39
2023-03-17T20:54:07.179Z,100601.02
2023-03-17T20:56:38.451Z,100600.91
2023-03-17T20:59:12.831Z,100601.04
2023-03-17T21:01:46.894Z,100601.21
2023-03-17T21:04:18.732Z,100597.72
2023-03-17T21:06:50.557Z,100594.40
2023-03-17T21:09:22.534Z,100593.79
2023-03-17T21:11:57.169Z,100591.16
2023-03-17T21:14:34.826Z,100584.67
2023-03-17T21:17:05.898Z,100585.36
2023-03-17T21:19:37.366Z,100581.87
2023-03-17T21:22:13.073Z,100573.39
2023-03-17T21:24:49.021Z,100577.44
2023-03-17T21:27:22.243Z,100577.48
2023-03-17T21:29:53.163Z,100577.73
2023-03-17T21:32:27.300Z,100576.31
2023-03-17T21:34:59.394Z,100568.14
2023-03-17T21:37:33.125Z,100568.19
2023-03-17T21:40:07.625Z,100561.27
2023-03-17T21:42:38.074Z,100562.92
2023-03-17T21:45:13.129Z,100563.79
2023-03-17T21:47:45.223Z,100563.00
2023-03-17T21:50:19.369Z,100565.71
2023-03-17T21:52:52.120Z,100554.00
2023-03-17T21:55:26.020Z,100546.02
2023-03-17T21:57:57.221Z,100553.73
2023-03-17T22:00:35.982Z,100558.05
2023-03-17T22:03:17.088Z,100555.77
2023-03-17T22:05:48.351Z,100555.60
2023-03-17T22:08:23.877Z,100556.84
2023-03-17T22:10:54.450Z,100555.91
2023-03-17T22:13:24.918Z,100549.29
2023-03-17T22:15:56.798Z,100545.88
2023-03-17T22:18:27.559Z,100543.86
2023-03-17T22:20:59.350Z,100549.23
2023-03-17T22:23:30.797Z,100542.49
2023-03-17T22:26:03.286Z,100543.70
2023-03-17T22:28:33.228Z,100537.45
2023-03-17T22:31:11.731Z,100530.80
2023-03-17T22:33:43.090Z,100530.67
2023-03-17T22:36:14.686Z,100537.75
2023-03-17T22:38:48.392Z,100534.89
2023-03-17T22:41:21.098Z,100538.92
2023-03-17T22:43:54.931Z,100538.07
2023-03-17T22:46:25.824Z,100539.94
2023-03-17T22:48:57.089Z,100539.19
2023-03-17T22:51:28.778Z,100535.00
2023-03-17T22:53:58.840Z,100536.05
2023-03-17T22:56:30.547Z,100535.91
2023-03-17T22:59:03.020Z,100537.86
2023-03-17T23:01:32.188Z,100529.89
2023-03-17T23:04:04.601Z,100529.70
2023-03-17T23:06:38.267Z,100527.73
2023-03-17T23:09:08.408Z,100528.70
2023-03-17T23:11:40.262Z,100530.20
2023-03-17T23:14:11.698Z,100533.67
2023-03-17T23:16:44.261Z,100530.12
2023-03-17T23:19:16.989Z,100533.19
2023-03-17T23:21:47.734Z,100535.70
2023-03-17T23:24:20.271Z,100535.79
2023-03-17T23:26:51.751Z,100534.59
2023-03-17T23:29:25.791Z,100532.02
2023-03-17T23:31:56.779Z,100528.13
2023-03-17T23:34:27.390Z,100524.61
2023-03-17T23:37:00.268Z,100521.20
2023-03-17T23:39:32.008Z,100513.02
2023-03-17T23:42:01.986Z,100512.80
2023-03-17T23:44:35.834Z,100507.91
2023-03-17T23:47:05.856Z,100510.63
2023-03-17T23:49:35.331Z,100506.69
2023-03-17T23:52:08.385Z,100508.49
2023-03-17T23:54:42.037Z,100506.95
2023-03-17T23:57:13.097Z,100508.00
2023-03-17T23:59:44.178Z,100506.16
